createdAt,value
2019-02-15T00:02:28.085Z,69.59
2019-02-15T00:04:56.507Z,69.66
2019-02-15T00:07:24.929Z,69.63
2019-02-15T00:09:53.324Z,69.70
2019-02-15T00:12:21.737Z,69.78
2019-02-15T00:14:50.330Z,69.80
2019-02-15T00:17:20.378Z,69.82
2019-02-15T00:19:50.413Z,69.85
2019-02-15T00:22:18.997Z,69.91
2019-02-15T00:24:47.399Z,69.93
2019-02-15T00:27:15.797Z,69.84
2019-02-15T00:29:44.337Z,69.71
2019-02-15T00:32:12.730Z,69.62
2019-02-15T00:34:41.142Z,69.62
2019-02-15T00:37:09.721Z,69.66
2019-02-15T00:39:38.117Z,69.82
2019-02-15T00:42:06.511Z,69.79
2019-02-15T00:44:35.141Z,69.74
2019-02-15T00:47:23.455Z,69.69
2019-02-15T00:49:53.797Z,69.81
2019-02-15T00:52:26.529Z,69.70
2019-02-15T00:54:56.757Z,69.66
2019-02-15T00:57:36.066Z,69.64
2019-02-15T01:00:10.310Z,69.68
2019-02-15T01:02:46.207Z,69.52
2019-02-15T01:05:16.312Z,69.45
2019-02-15T01:07:49.020Z,69.40
2019-02-15T01:10:24.929Z,69.42
2019-02-15T01:12:57.441Z,69.55
2019-02-15T01:15:25.855Z,69.61
2019-02-15T01:17:54.301Z,69.71
2019-02-15T01:20:22.697Z,69.80
2019-02-15T01:22:51.097Z,69.87
2019-02-15T01:25:19.592Z,69.88
2019-02-15T01:27:49.630Z,69.85
2019-02-15T01:30:36.150Z,69.94
2019-02-15T01:33:06.189Z,69.92
2019-02-15T01:35:38.905Z,69.90
2019-02-15T01:38:14.464Z,69.92
2019-02-15T01:40:53.246Z,69.86
2019-02-15T01:43:29.076Z,69.72
2019-02-15T01:45:59.126Z,69.64
2019-02-15T01:48:27.520Z,69.59
2019-02-15T01:50:56.149Z,69.49
2019-02-15T01:53:24.555Z,69.44
2019-02-15T01:55:52.942Z,69.44
2019-02-15T01:58:21.692Z,69.40
2019-02-15T02:00:50.154Z,69.35
2019-02-15T02:03:18.552Z,69.26
2019-02-15T02:05:47.182Z,69.22
2019-02-15T02:08:17.347Z,69.18
2019-02-15T02:10:45.886Z,69.18
2019-02-15T02:13:14.348Z,69.15
2019-02-15T02:15:42.754Z,69.05
2019-02-15T02:18:11.154Z,69.00
2019-02-15T02:20:39.576Z,69.01
2019-02-15T02:23:08.021Z,68.93
2019-02-15T02:25:36.584Z,68.89
2019-02-15T02:28:05.201Z,68.82
2019-02-15T02:30:33.607Z,68.74
2019-02-15T02:33:02.077Z,68.69
2019-02-15T02:35:30.668Z,68.58
2019-02-15T02:37:59.067Z,68.61
2019-02-15T02:40:27.473Z,68.70
2019-02-15T02:42:55.896Z,68.71
2019-02-15T02:45:24.345Z,68.67
2019-02-15T02:47:52.778Z,68.66
2019-02-15T02:50:21.315Z,68.69
2019-02-15T02:52:49.782Z,68.73
2019-02-15T02:55:18.178Z,68.72
2019-02-15T02:57:46.772Z,68.63
2019-02-15T03:00:15.238Z,68.63
2019-02-15T03:02:43.738Z,68.71
2019-02-15T03:05:12.201Z,68.78
2019-02-15T03:07:40.596Z,68.70
2019-02-15T03:10:09.132Z,68.69
2019-02-15T03:12:37.588Z,68.62
2019-02-15T03:15:07.194Z,68.51
2019-02-15T03:17:35.597Z,68.38
2019-02-15T03:20:04.936Z,68.42
2019-02-15T03:22:33.330Z,68.37
2019-02-15T03:25:01.778Z,68.41
2019-02-15T03:27:30.400Z,68.45
2019-02-15T03:29:58.799Z,68.43
2019-02-15T03:32:27.305Z,68.48
2019-02-15T03:34:55.722Z,68.51
2019-02-15T03:37:41.922Z,68.46
2019-02-15T03:40:12.081Z,68.44
2019-02-15T03:42:40.476Z,68.43
2019-02-15T03:45:09.513Z,68.44
2019-02-15T03:47:38.297Z,68.45
2019-02-15T03:50:08.628Z,68.58
2019-02-15T03:52:37.022Z,68.62
2019-02-15T03:55:06.694Z,68.54
2019-02-15T03:57:35.154Z,68.63
2019-02-15T04:00:04.560Z,68.71
2019-02-15T04:02:33.180Z,68.71
2019-02-15T04:05:01.589Z,68.74
2019-02-15T04:07:30.096Z,68.65
2019-02-15T04:09:58.890Z,68.54
2019-02-15T04:12:27.288Z,68.56
2019-02-15T04:14:55.703Z,68.55
2019-02-15T04:17:24.149Z,68.49
2019-02-15T04:19:52.540Z,68.49
2019-02-15T04:22:20.940Z,68.63
2019-02-15T04:24:49.489Z,68.59
2019-02-15T04:27:17.884Z,68.56
2019-02-15T04:29:46.288Z,68.58
2019-02-15T04:32:14.845Z,68.64
2019-02-15T04:34:43.238Z,68.63
2019-02-15T04:37:11.645Z,68.63
2019-02-15T04:39:40.128Z,68.66
2019-02-15T04:42:08.544Z,68.56
2019-02-15T04:44:42.752Z,68.55
2019-02-15T04:47:07.087Z,68.57
2019-02-15T04:49:35.499Z,68.66
2019-02-15T04:52:03.909Z,68.68
2019-02-15T04:54:32.342Z,68.63
2019-02-15T04:57:00.733Z,68.58
2019-02-15T04:59:29.133Z,68.56
2019-02-15T05:01:57.749Z,68.58
2019-02-15T05:04:26.133Z,68.60
2019-02-15T05:06:54.528Z,68.60
2019-02-15T05:09:24.053Z,68.64
2019-02-15T05:11:52.547Z,68.77
2019-02-15T05:14:20.940Z,68.93
2019-02-15T05:16:49.543Z,69.02
2019-02-15T05:19:17.934Z,69.11
2019-02-15T05:21:46.458Z,69.22
2019-02-15T05:24:14.992Z,69.36
2019-02-15T05:26:43.380Z,69.46
2019-02-15T05:29:11.775Z,69.55
2019-02-15T05:31:40.539Z,69.59
2019-02-15T05:34:09.103Z,69.63
2019-02-15T05:36:37.500Z,69.70
2019-02-15T05:39:08.700Z,69.77
2019-02-15T05:41:37.091Z,69.72
2019-02-15T05:44:05.484Z,69.75
2019-02-15T05:46:34.088Z,69.81
2019-02-15T05:49:04.040Z,69.83
2019-02-15T05:51:32.346Z,69.87
2019-02-15T05:54:01.188Z,69.87
2019-02-15T05:56:29.544Z,69.89
2019-02-15T05:58:57.941Z,69.87
2019-02-15T06:01:27.668Z,69.86
2019-02-15T06:03:56.090Z,69.88
2019-02-15T06:06:24.495Z,69.89
2019-02-15T06:08:52.956Z,69.91
2019-02-15T06:11:21.345Z,69.90
2019-02-15T06:13:49.747Z,69.91
2019-02-15T06:16:18.318Z,69.86
2019-02-15T06:18:46.703Z,69.85
2019-02-15T06:21:15.090Z,69.85
2019-02-15T06:23:43.865Z,69.85
2019-02-15T06:26:12.247Z,69.81
2019-02-15T06:28:40.661Z,69.80
2019-02-15T06:31:09.156Z,69.79
2019-02-15T06:33:37.923Z,69.68
2019-02-15T06:36:06.387Z,69.58
2019-02-15T06:38:35.292Z,69.48
2019-02-15T06:41:03.745Z,69.39
2019-02-15T06:43:32.137Z,69.34
2019-02-15T06:46:02.231Z,69.28
2019-02-15T06:48:30.696Z,69.18
2019-02-15T06:50:59.092Z,69.04
2019-02-15T06:53:27.674Z,68.96
2019-02-15T06:55:56.071Z,68.91
2019-02-15T06:58:24.477Z,68.79
2019-02-15T07:01:10.830Z,68.65
2019-02-15T07:03:40.865Z,68.53
2019-02-15T07:06:11.437Z,68.32
2019-02-15T07:08:39.885Z,68.25
2019-02-15T07:11:08.288Z,68.21
2019-02-15T07:13:36.688Z,68.12
2019-02-15T07:16:05.260Z,68.05
2019-02-15T07:18:33.708Z,67.98
2019-02-15T07:21:02.053Z,67.81
2019-02-15T07:23:30.472Z,67.75
2019-02-15T07:25:58.940Z,67.70
2019-02-15T07:28:27.348Z,67.61
2019-02-15T07:30:55.997Z,67.58
2019-02-15T07:33:24.400Z,67.42
2019-02-15T07:35:52.799Z,67.38
2019-02-15T07:38:21.246Z,67.34
2019-02-15T07:40:49.652Z,67.32
2019-02-15T07:43:18.055Z,67.37
2019-02-15T07:45:46.503Z,67.37
2019-02-15T07:48:14.907Z,67.29
2019-02-15T07:50:43.307Z,67.20
2019-02-15T07:53:11.737Z,67.16
2019-02-15T07:55:40.151Z,67.07
2019-02-15T07:58:08.550Z,67.00
2019-02-15T08:00:37.011Z,66.90
2019-02-15T08:03:05.410Z,66.75
2019-02-15T08:05:33.965Z,66.61
2019-02-15T08:08:02.420Z,66.50
2019-02-15T08:10:30.813Z,66.33
2019-02-15T08:12:59.209Z,66.21
2019-02-15T08:15:35.861Z,66.08
2019-02-15T08:17:57.945Z,65.96
2019-02-15T08:20:26.351Z,65.78
2019-02-15T08:22:54.811Z,65.55
2019-02-15T08:25:23.209Z,65.48
2019-02-15T08:27:51.621Z,65.45
2019-02-15T08:30:22.033Z,65.49
2019-02-15T08:32:50.237Z,65.49
2019-02-15T08:35:18.638Z,65.48
2019-02-15T08:37:47.147Z,65.45
2019-02-15T08:40:15.537Z,65.38
2019-02-15T08:42:46.003Z,65.54
2019-02-15T08:45:14.430Z,65.77
2019-02-15T08:47:42.882Z,66.00
2019-02-15T08:50:12.211Z,66.16
2019-02-15T08:52:40.777Z,66.05
2019-02-15T08:55:11.008Z,65.99
2019-02-15T08:57:39.411Z,65.91
2019-02-15T09:00:13.092Z,65.96
2019-02-15T09:02:41.497Z,65.56
2019-02-15T09:05:13.203Z,65.35
2019-02-15T09:07:41.885Z,65.26
2019-02-15T09:10:12.327Z,64.96
2019-02-15T09:12:40.739Z,64.55
2019-02-15T09:15:12.351Z,64.20
2019-02-15T09:17:40.817Z,64.07
2019-02-15T09:20:11.260Z,63.80
2019-02-15T09:22:39.907Z,63.85
2019-02-15T09:25:10.351Z,63.77
2019-02-15T09:27:43.169Z,63.52
2019-02-15T09:30:13.900Z,63.40
2019-02-15T09:32:42.307Z,63.22
2019-02-15T09:35:12.149Z,63.28
2019-02-15T09:37:40.643Z,63.41
2019-02-15T09:40:10.450Z,63.25
2019-02-15T09:42:38.923Z,63.03
2019-02-15T09:45:11.948Z,62.92
2019-02-15T09:47:40.353Z,62.81
2019-02-15T09:50:11.993Z,62.34
2019-02-15T09:52:40.227Z,61.85
2019-02-15T09:55:08.800Z,61.72
2019-02-15T09:57:37.203Z,61.42
2019-02-15T10:00:08.549Z,61.46
2019-02-15T10:02:36.943Z,61.57
2019-02-15T10:05:06.988Z,61.33
2019-02-15T10:07:35.467Z,61.32
2019-02-15T10:10:04.736Z,61.27
2019-02-15T10:12:33.130Z,61.18
2019-02-15T10:15:01.558Z,61.16
2019-02-15T10:17:30.038Z,60.90
2019-02-15T10:19:58.435Z,60.44
2019-02-15T10:22:26.867Z,60.06
2019-02-15T10:24:55.263Z,59.90
2019-02-15T10:27:23.672Z,59.81
2019-02-15T10:29:52.273Z,59.82
2019-02-15T10:32:20.728Z,59.97
2019-02-15T10:34:49.131Z,60.11
2019-02-15T10:37:19.266Z,60.23
2019-02-15T10:39:47.670Z,60.20
2019-02-15T10:42:16.082Z,60.45
2019-02-15T10:44:44.546Z,60.47
2019-02-15T10:47:14.475Z,60.26
2019-02-15T10:49:43.157Z,60.20
2019-02-15T10:52:11.807Z,60.24
2019-02-15T10:54:40.209Z,59.93
2019-02-15T10:57:08.615Z,59.68
2019-02-15T10:59:37.079Z,59.39
2019-02-15T11:02:05.827Z,58.89
2019-02-15T11:04:34.237Z,58.71
2019-02-15T11:07:02.765Z,58.40
2019-02-15T11:09:31.183Z,57.80
2019-02-15T11:11:59.654Z,57.56
2019-02-15T11:14:28.103Z,57.39
2019-02-15T11:16:56.505Z,57.04
2019-02-15T11:19:24.914Z,56.66
2019-02-15T11:21:53.334Z,56.43
2019-02-15T11:24:21.741Z,56.38
2019-02-15T11:26:50.140Z,56.15
2019-02-15T11:29:18.592Z,56.08
2019-02-15T11:31:46.985Z,55.75
2019-02-15T11:34:15.411Z,55.60
2019-02-15T11:36:44.025Z,55.49
2019-02-15T11:39:12.425Z,55.14
2019-02-15T11:41:40.831Z,54.98
2019-02-15T11:44:09.257Z,54.90
2019-02-15T11:46:37.757Z,54.68
2019-02-15T11:49:06.163Z,54.44
2019-02-15T11:51:34.836Z,54.21
2019-02-15T11:54:03.241Z,54.19
2019-02-15T11:56:31.637Z,54.16
2019-02-15T11:59:00.080Z,54.09
2019-02-15T12:01:28.489Z,53.78
2019-02-15T12:03:56.882Z,53.50
2019-02-15T12:06:25.356Z,53.12
2019-02-15T12:08:53.750Z,52.34
2019-02-15T12:11:22.196Z,52.40
2019-02-15T12:13:50.812Z,52.53
2019-02-15T12:16:19.304Z,52.22
2019-02-15T12:18:47.686Z,52.13
2019-02-15T12:21:16.116Z,51.99
2019-02-15T12:23:44.981Z,51.72
2019-02-15T12:26:13.403Z,51.80
2019-02-15T12:28:42.019Z,51.58
2019-02-15T12:31:10.423Z,51.11
2019-02-15T12:33:38.826Z,50.77
2019-02-15T12:36:07.357Z,50.62
2019-02-15T12:38:35.828Z,50.39
2019-02-15T12:41:04.237Z,50.38
2019-02-15T12:43:32.888Z,50.18
2019-02-15T12:46:01.421Z,49.94
2019-02-15T12:48:29.817Z,49.71
2019-02-15T12:50:58.474Z,49.40
2019-02-15T12:53:26.940Z,49.31
2019-02-15T12:55:55.338Z,49.18
2019-02-15T12:58:23.885Z,49.11
2019-02-15T13:00:52.379Z,48.96
2019-02-15T13:03:20.790Z,48.67
2019-02-15T13:05:50.077Z,48.64
2019-02-15T13:08:18.686Z,48.62
2019-02-15T13:10:48.973Z,48.31
2019-02-15T13:13:17.800Z,47.74
2019-02-15T13:15:46.215Z,47.59
2019-02-15T13:18:14.587Z,47.30
2019-02-15T13:20:43.086Z,46.88
2019-02-15T13:23:11.481Z,46.57
2019-02-15T13:25:39.876Z,46.51
2019-02-15T13:28:08.351Z,46.45
2019-02-15T13:30:36.723Z,46.31
2019-02-15T13:33:05.119Z,46.12
2019-02-15T13:35:33.677Z,46.02
2019-02-15T13:38:02.136Z,45.82
2019-02-15T13:40:30.533Z,45.47
2019-02-15T13:42:59.205Z,45.42
2019-02-15T13:45:29.516Z,45.38
2019-02-15T13:47:57.728Z,45.32
2019-02-15T13:50:26.160Z,45.33
2019-02-15T13:52:54.571Z,45.05
2019-02-15T13:55:23.336Z,44.69
2019-02-15T13:57:52.009Z,44.58
2019-02-15T14:00:20.379Z,44.52
2019-02-15T14:02:48.779Z,44.51
2019-02-15T14:05:17.372Z,44.45
2019-02-15T14:07:45.839Z,44.43
2019-02-15T14:10:14.873Z,44.34
2019-02-15T14:12:43.530Z,44.27
2019-02-15T14:15:12.967Z,44.19
2019-02-15T14:17:46.304Z,43.97
2019-02-15T14:20:14.675Z,43.84
2019-02-15T14:22:43.204Z,43.63
2019-02-15T14:25:12.445Z,43.53
2019-02-15T14:27:41.195Z,43.39
2019-02-15T14:30:13.855Z,43.46
2019-02-15T14:32:43.210Z,43.38
2019-02-15T14:35:13.501Z,43.48
2019-02-15T14:37:43.453Z,43.35
2019-02-15T14:40:13.358Z,43.11
2019-02-15T14:42:42.003Z,42.93
2019-02-15T14:45:11.674Z,42.59
2019-02-15T14:47:40.161Z,42.35
2019-02-15T14:50:14.826Z,42.08
2019-02-15T14:52:43.243Z,41.82
2019-02-15T14:55:12.127Z,41.57
2019-02-15T14:57:42.017Z,41.48
2019-02-15T15:00:12.408Z,41.30
2019-02-15T15:02:41.067Z,41.25
2019-02-15T15:05:10.588Z,41.39
2019-02-15T15:07:39.030Z,41.58
2019-02-15T15:10:09.281Z,41.82
2019-02-15T15:12:44.090Z,42.14
2019-02-15T15:15:16.462Z,42.47
2019-02-15T15:17:45.375Z,42.89
2019-02-15T15:20:17.222Z,43.27
2019-02-15T15:22:45.632Z,43.31
2019-02-15T15:25:16.770Z,43.38
2019-02-15T15:27:45.214Z,43.34
2019-02-15T15:30:15.029Z,43.35
2019-02-15T15:32:43.568Z,43.60
2019-02-15T15:35:12.945Z,43.88
2019-02-15T15:37:41.419Z,44.26
2019-02-15T15:40:15.046Z,44.53
2019-02-15T15:42:43.443Z,44.49
2019-02-15T15:45:12.794Z,44.57
2019-02-15T15:47:41.301Z,44.30
2019-02-15T15:50:11.445Z,44.12
2019-02-15T15:52:40.083Z,44.08
2019-02-15T15:55:13.443Z,44.16
2019-02-15T15:57:41.896Z,44.41
2019-02-15T16:00:14.946Z,44.76
2019-02-15T16:02:43.947Z,44.72
2019-02-15T16:05:12.481Z,44.75
2019-02-15T16:07:43.289Z,44.86
2019-02-15T16:10:12.678Z,45.02
2019-02-15T16:12:41.097Z,45.22
2019-02-15T16:15:11.426Z,45.37
2019-02-15T16:17:40.074Z,45.63
2019-02-15T16:20:10.955Z,45.70
2019-02-15T16:22:39.362Z,45.76
2019-02-15T16:25:10.590Z,46.03
2019-02-15T16:27:38.987Z,46.30
2019-02-15T16:30:10.722Z,46.56
2019-02-15T16:32:39.141Z,46.75
2019-02-15T16:35:08.285Z,46.90
2019-02-15T16:37:36.715Z,46.92
2019-02-15T16:40:13.694Z,46.95
2019-02-15T16:42:44.532Z,47.09
2019-02-15T16:45:14.676Z,47.19
2019-02-15T16:47:43.345Z,47.22
2019-02-15T16:50:12.377Z,47.25
2019-02-15T16:52:40.944Z,47.29
2019-02-15T16:55:12.678Z,47.45
2019-02-15T16:57:40.434Z,47.50
2019-02-15T17:00:13.550Z,47.67
2019-02-15T17:02:42.047Z,47.73
2019-02-15T17:05:10.787Z,47.88
2019-02-15T17:07:39.186Z,47.90
2019-02-15T17:10:09.632Z,48.03
2019-02-15T17:12:38.133Z,48.15
2019-02-15T17:15:14.542Z,48.31
2019-02-15T17:17:43.002Z,48.64
2019-02-15T17:20:11.647Z,48.85
2019-02-15T17:22:40.162Z,48.98
2019-02-15T17:25:14.501Z,49.13
2019-02-15T17:27:42.983Z,49.31
2019-02-15T17:30:12.167Z,49.56
2019-02-15T17:32:40.652Z,49.81
2019-02-15T17:35:12.517Z,49.80
2019-02-15T17:37:41.124Z,49.85
2019-02-15T17:40:14.631Z,49.84
2019-02-15T17:42:43.030Z,49.81
2019-02-15T17:45:12.874Z,49.87
2019-02-15T17:47:41.339Z,49.91
2019-02-15T17:50:11.070Z,49.96
2019-02-15T17:52:39.586Z,50.15
2019-02-15T17:55:09.819Z,50.11
2019-02-15T17:57:38.558Z,50.07
2019-02-15T18:00:10.361Z,50.18
2019-02-15T18:02:38.793Z,50.31
2019-02-15T18:05:10.570Z,50.43
2019-02-15T18:07:39.167Z,50.42
2019-02-15T18:10:07.632Z,50.49
2019-02-15T18:12:36.320Z,50.56
2019-02-15T18:15:05.765Z,50.78
2019-02-15T18:17:34.175Z,50.95
2019-02-15T18:20:02.638Z,50.96
2019-02-15T18:22:31.061Z,51.12
2019-02-15T18:24:59.460Z,51.21
2019-02-15T18:27:27.857Z,51.20
2019-02-15T18:29:56.631Z,51.21
2019-02-15T18:32:25.024Z,51.22
2019-02-15T18:34:53.438Z,51.33
2019-02-15T18:37:21.968Z,51.53
2019-02-15T18:39:50.354Z,51.56
2019-02-15T18:42:18.784Z,51.71
2019-02-15T18:44:47.207Z,51.73
2019-02-15T18:47:15.605Z,51.75
2019-02-15T18:49:44.095Z,51.83
2019-02-15T18:52:12.756Z,51.92
2019-02-15T18:54:41.158Z,51.95
2019-02-15T18:57:09.555Z,52.15
2019-02-15T18:59:37.975Z,52.28
2019-02-15T19:02:06.441Z,52.36
2019-02-15T19:04:34.842Z,52.36
2019-02-15T19:07:03.632Z,52.37
2019-02-15T19:09:32.028Z,52.38
2019-02-15T19:12:00.505Z,52.43
2019-02-15T19:14:28.932Z,52.55
2019-02-15T19:16:57.331Z,52.51
2019-02-15T19:19:29.024Z,52.63
2019-02-15T19:21:55.919Z,52.73
2019-02-15T19:24:24.342Z,52.83
2019-02-15T19:26:52.802Z,52.96
2019-02-15T19:29:21.232Z,53.07
2019-02-15T19:31:49.629Z,53.14
2019-02-15T19:34:18.089Z,53.30
2019-02-15T19:36:46.516Z,53.56
2019-02-15T19:39:14.914Z,53.86
2019-02-15T19:41:43.317Z,54.09
2019-02-15T19:44:11.736Z,54.20
2019-02-15T19:46:40.118Z,54.31
2019-02-15T19:49:08.515Z,54.25
2019-02-15T19:51:37.265Z,54.26
2019-02-15T19:54:05.739Z,54.14
2019-02-15T19:56:34.138Z,54.16
2019-02-15T19:59:02.746Z,54.12
2019-02-15T20:01:31.151Z,54.11
2019-02-15T20:03:59.548Z,53.99
2019-02-15T20:06:27.998Z,53.93
2019-02-15T20:08:56.390Z,53.86
2019-02-15T20:11:24.822Z,53.83
2019-02-15T20:13:53.350Z,54.02
2019-02-15T20:16:21.744Z,54.17
2019-02-15T20:18:50.143Z,54.13
2019-02-15T20:21:18.567Z,54.18
2019-02-15T20:23:46.980Z,54.36
2019-02-15T20:26:15.397Z,54.50
2019-02-15T20:28:43.824Z,54.57
2019-02-15T20:31:12.222Z,54.72
2019-02-15T20:33:40.618Z,54.83
2019-02-15T20:36:09.061Z,54.89
2019-02-15T20:38:37.468Z,55.05
2019-02-15T20:41:05.884Z,55.12
2019-02-15T20:43:34.493Z,55.37
2019-02-15T20:46:02.898Z,55.43
2019-02-15T20:48:31.360Z,55.48
2019-02-15T20:50:59.781Z,55.43
2019-02-15T20:53:28.171Z,55.35
2019-02-15T20:55:56.562Z,55.21
2019-02-15T20:58:25.181Z,55.24
2019-02-15T21:00:53.649Z,55.28
2019-02-15T21:03:22.056Z,55.34
2019-02-15T21:05:50.612Z,55.42
2019-02-15T21:08:19.007Z,55.45
2019-02-15T21:10:54.576Z,55.63
2019-02-15T21:13:20.416Z,55.81
2019-02-15T21:15:48.083Z,55.86
2019-02-15T21:18:16.575Z,55.86
2019-02-15T21:20:45.182Z,55.79
2019-02-15T21:23:13.580Z,55.80
2019-02-15T21:25:41.978Z,55.89
2019-02-15T21:28:10.388Z,55.85
2019-02-15T21:30:38.814Z,55.81
2019-02-15T21:33:07.274Z,55.81
2019-02-15T21:35:35.701Z,55.83
2019-02-15T21:38:04.170Z,55.97
2019-02-15T21:40:32.592Z,56.22
2019-02-15T21:43:01.206Z,56.41
2019-02-15T21:45:29.607Z,56.43
2019-02-15T21:47:58.006Z,56.45
2019-02-15T21:50:26.546Z,56.34
2019-02-15T21:52:54.939Z,56.32
2019-02-15T21:55:23.338Z,56.37
2019-02-15T21:58:00.788Z,56.44
2019-02-15T22:00:24.172Z,56.40
2019-02-15T22:02:52.568Z,56.45
2019-02-15T22:05:21.265Z,56.43
2019-02-15T22:07:49.659Z,56.48
2019-02-15T22:10:18.062Z,56.53
2019-02-15T22:12:46.526Z,56.90
2019-02-15T22:15:16.467Z,57.04
2019-02-15T22:17:44.860Z,57.34
2019-02-15T22:20:14.720Z,57.27
2019-02-15T22:22:43.165Z,57.14
2019-02-15T22:25:11.671Z,57.08
2019-02-15T22:27:40.354Z,57.26
2019-02-15T22:30:14.302Z,57.28
2019-02-15T22:32:42.883Z,57.22
2019-02-15T22:35:11.689Z,57.11
2019-02-15T22:37:40.153Z,57.11
2019-02-15T22:40:31.293Z,57.12
2019-02-15T22:43:02.468Z,57.27
2019-02-15T22:45:30.967Z,57.13
2019-02-15T22:47:59.468Z,57.05
2019-02-15T22:50:35.630Z,57.06
2019-02-15T22:52:57.968Z,57.09
2019-02-15T22:55:26.574Z,57.11
2019-02-15T22:57:55.001Z,57.03
2019-02-15T23:00:40.328Z,57.01
2019-02-15T23:03:08.782Z,57.01
2019-02-15T23:05:37.170Z,56.92
2019-02-15T23:08:05.594Z,56.96
2019-02-15T23:10:33.986Z,56.88
2019-02-15T23:13:02.384Z,56.86
2019-02-15T23:15:30.803Z,56.92
2019-02-15T23:17:59.202Z,57.07
2019-02-15T23:20:27.622Z,57.34
2019-02-15T23:22:56.022Z,57.62
2019-02-15T23:25:25.106Z,57.68
2019-02-15T23:27:53.762Z,57.70
2019-02-15T23:30:22.210Z,57.73
2019-02-15T23:32:50.600Z,57.83
2019-02-15T23:35:19.003Z,57.81
2019-02-15T23:37:47.470Z,57.75
2019-02-15T23:40:15.868Z,57.64
2019-02-15T23:42:44.260Z,57.68
2019-02-15T23:45:13.080Z,57.72
2019-02-15T23:47:41.526Z,57.76
2019-02-15T23:50:10.102Z,57.82
2019-02-15T23:52:38.508Z,57.89
2019-02-15T23:55:07.079Z,57.90
2019-02-15T23:57:35.492Z,57.98
